Latest Coastal Weather Observations for Geraldton Airport

IDW60701

Issued at 2:23 am WST Monday 19 February 2018 (issued every 10 minutes, with the page automatically refreshed every 10 minutes)

About coastal observations | Map of coastal stations | Coastal observations for WA | Marine services | Other Formats
Station Details ID: 008315 Name: GERALDTON AIRPORT Lat: -28.80 Lon: 114.70 Height: 29.7 m
Data from the previous 72 hours. | See also: Recent months at Geraldton Airport
Date/Time
WST
Temp
°C
Wind Pressure Rain since
9am
mm
Weather Cloud Vis
km
Sea
Height
m
Swell
Dir  Spd
kts
Gust
kts
hPa Trend Height
m
Period
s
Dir
19/02:00am 21.8 S 14 18 1007.7 - 0.0 - Partly cloudy 10 - - - -
19/01:30am 21.9 SSW 16 20 1007.7 - 0.0 - Cloudy 10 - - - -
19/01:00am 22.0 SSW 16 24 1007.9 - 0.0 - Partly cloudy 10 - - - -
19/12:30am 22.0 SSW 15 19 1008.1 - 0.0 - Partly cloudy 10 - - - -
19/12:00am 21.9 S 15 19 1008.1 - 0.0 - Cloudy 10 - - - -
 
Date/Time
WST
Temp
°C
Wind Pressure Rain since
9am
mm
Weather Cloud Vis
km
Sea
Height
m
Swell
Dir  Spd
kts
Gust
kts
hPa Trend Height
m
Period
s
Dir
18/11:30pm 21.7 S 14 19 1008.2 - 0.0 - Partly cloudy 10 - - - -
18/11:03pm 21.9 SSW 15 19 1008.3 - 0.0 - Partly cloudy 10 - - - -
18/11:00pm 21.8 SSW 15 19 1008.4 - 0.0 - Partly cloudy 10 - - - -
18/10:44pm 21.7 SSW 15 19 1008.3 - 0.0 - Partly cloudy 10 - - - -
18/10:30pm 21.6 S 15 19 1008.4 - 0.0 - Partly cloudy 10 - - - -
18/10:00pm 21.8 SSW 14 18 1008.9 - 0.0 - Partly cloudy 10 - - - -
18/09:30pm 21.6 SSW 15 20 1008.9 - 0.0 - Partly cloudy 10 - - - -
18/09:00pm 21.8 SSW 16 20 1008.6 - 0.0 - Cloudy 10 - - - -
18/08:30pm 21.9 SSW 15 19 1008.4 - 0.0 - Partly cloudy 10 - - - -
18/08:00pm 21.8 S 15 21 1008.0 - 0.0 - Partly cloudy 10 - - - -
18/07:30pm 22.0 S 15 20 1007.8 - 0.0 - Partly cloudy 10 - - - -
18/07:00pm 22.3 SSW 15 20 1007.7 - 0.0 - Partly cloudy 10 - - - -
18/06:30pm 22.6 S 16 21 1007.5 - 0.0 - Partly cloudy 10 - - - -
18/06:00pm 23.2 SSW 19 24 1006.9 - 0.0 - Cloudy 10 - - - -
18/05:30pm 24.1 SSW 17 22 1006.8 - 0.0 - Partly cloudy 10 - - - -
18/05:00pm 24.9 SSW 18 25 1006.4 - 0.0 - Partly cloudy 10 - - - -
18/04:30pm 24.2 SW 16 23 1006.4 - 0.0 - Partly cloudy 10 - - - -
18/04:00pm 24.9 SSW 17 23 1006.2 - 0.0 - Partly cloudy 10 - - - -
18/03:30pm 25.7 SW 17 24 1006.2 - 0.0 - Partly cloudy 10 - - - -
18/03:00pm 25.5 SSW 16 22 1006.4 - 0.0 - Mostly cloudy 10 - - - -
18/02:30pm 26.0 SSW 15 20 1006.6 - 0.0 - Partly cloudy 10 - - - -
18/02:00pm 26.5 SSW 14 20 1006.7 - 0.0 - - 10 - - - -
18/01:30pm 28.0 SW 14 19 1006.8 - 0.0 - - 10 - - - -
18/01:00pm 26.7 SSW 14 19 1006.8 - 0.0 - Partly cloudy 10 - - - -
18/12:30pm 26.4 SSW 12 18 1006.9 - 0.0 - Partly cloudy 10 - - - -
18/12:00pm 26.5 SW 11 18 1007.0 - 0.0 - Partly cloudy 10 - - - -
18/11:30am 26.2 SSW 12 20 1007.1 - 0.0 - Partly cloudy 10 - - - -
18/11:00am 26.4 SSW 12 17 1007.3 - 0.0 - Partly cloudy 10 - - - -
18/10:30am 25.9 SSW 10 15 1007.5 - 0.0 - Partly cloudy 10 - - - -
18/10:00am 24.5 S 11 16 1007.5 - 0.0 - Partly cloudy 10 - - - -
18/09:30am 24.8 S 11 15 1007.6 - 0.0 - Partly cloudy 10 - - - -
18/09:00am 24.5 S 5 8 1007.6 - 0.0 - Mostly clear 10 - - - -
18/08:30am 23.2 SSE 4 7 1007.5 - 0.0 - - 10 - - - -
18/08:00am 22.0 SE 3 7 1007.3 - 0.0 - Partly cloudy 10 - - - -
18/07:30am 20.8 NE 4 5 1007.2 - 0.0 - - 10 - - - -
18/07:00am 18.3 NNE 5 7 1007.0 - 0.0 - - 10 - - - -
18/06:30am 16.8 NNE 5 6 1006.5 - 0.0 - Partly cloudy 10 - - - -
18/06:00am 16.2 NE 7 7 1006.4 - 0.0 - Mostly cloudy 10 - - - -
18/05:30am 15.8 NNE 7 8 1006.1 - 0.0 - Partly cloudy 10 - - - -
18/05:00am 15.1 NNE 4 5 1005.9 - 0.0 - - 10 - - - -
18/04:30am 16.0 NE 3 6 1006.0 - 0.0 - Partly cloudy 10 - - - -
18/04:00am 15.1 CALM 0 0 1005.9 - 0.0 - Partly cloudy 10 - - - -
18/03:30am 16.4 CALM 0 0 1005.9 - 0.0 - - 10 - - - -
18/03:00am 15.6 CALM 0 0 1005.8 - 0.0 - - 10 - - - -
18/02:30am 16.2 CALM 0 0 1006.0 - 0.0 - - 10 - - - -
18/02:00am 16.7 CALM 0 0 1006.0 - 0.0 - - 10 - - - -
18/01:30am 17.4 CALM 0 0 1006.0 - 0.0 - Partly cloudy 10 - - - -
18/01:00am 16.5 ENE 4 6 1006.1 - 0.0 - - 10 - - - -
18/12:30am 18.6 S 5 6 1006.4 - 0.0 - - 10 - - - -
18/12:00am 18.8 SSW 8 9 1006.6 - 0.0 - - 10 - - - -
 
Date/Time
WST
Temp
°C
Wind Pressure Rain since
9am
mm
Weather Cloud Vis
km
Sea
Height
m
Swell
Dir  Spd
kts
Gust
kts
hPa Trend Height
m
Period
s
Dir
17/11:30pm 18.2 SSW 7 8 1006.9 - 0.0 - - 10 - - - -
17/11:00pm 18.5 S 4 5 1007.2 - 0.0 - - 10 - - - -
17/10:30pm 18.9 SSE 4 4 1007.4 - 0.0 - - 10 - - - -
17/10:00pm 19.6 SSE 5 6 1007.5 - 0.0 - - 10 - - - -
17/09:30pm 20.3 S 6 7 1007.5 - 0.0 - - 10 - - - -
17/09:00pm 20.9 S 9 11 1007.4 - 0.0 - Mostly clear 10 - - - -
17/08:30pm 22.1 S 9 12 1007.2 - 0.0 - Partly cloudy 10 - - - -
17/08:00pm 21.7 S 7 9 1007.0 - 0.0 - Partly cloudy 10 - - - -
17/07:30pm 22.1 S 11 15 1006.8 - 0.0 - Partly cloudy 10 - - - -
17/07:00pm 22.2 SSW 11 15 1006.5 - 0.0 - Partly cloudy 10 - - - -
17/06:30pm 22.8 SSW 13 18 1006.2 - 0.0 - Partly cloudy 10 - - - -
17/06:00pm 23.4 SSW 13 18 1006.0 - 0.0 - Partly cloudy 10 - - - -
17/05:30pm 23.4 SSW 14 19 1006.1 - 0.0 - Partly cloudy 10 - - - -
17/05:00pm 24.4 SW 14 19 1005.9 - 0.0 - Partly cloudy 10 - - - -
17/04:30pm 24.6 SSW 13 19 1005.8 - 0.0 - Partly cloudy 10 - - - -
17/04:00pm 25.0 SSW 14 19 1005.9 - 0.0 - Partly cloudy 10 - - - -
17/03:30pm 25.3 SW 13 18 1006.1 - 0.0 - Partly cloudy 10 - - - -
17/03:00pm 27.1 SSW 13 19 1006.1 - 0.0 - Partly cloudy 10 - - - -
17/02:30pm 25.3 SSW 13 18 1006.4 - 0.0 - Partly cloudy 10 - - - -
17/02:00pm 25.1 SSW 13 19 1006.6 - 0.0 - Partly cloudy 10 - - - -
17/01:30pm 25.8 SW 12 17 1006.9 - 0.0 - Partly cloudy 10 - - - -
17/01:00pm 26.1 SW 11 17 1006.8 - 0.0 - Partly cloudy 10 - - - -
17/12:30pm 25.5 SW 12 18 1006.9 - 0.0 - Partly cloudy 10 - - - -
17/12:00pm 25.2 SW 13 17 1007.1 - 0.0 - Partly cloudy 10 - - - -
17/11:30am 25.4 SW 12 17 1007.2 - 0.0 - Partly cloudy 10 - - - -
17/11:00am 25.8 SW 12 17 1007.4 - 0.0 - Partly cloudy 10 - - - -
17/10:30am 25.0 SSW 12 16 1007.7 - 0.0 - Partly cloudy 10 - - - -
17/10:00am 25.0 SSW 11 16 1007.9 - 0.0 - Partly cloudy 10 - - - -
17/09:30am 24.9 SSW 12 15 1007.9 - 0.0 - Partly cloudy 10 - - - -
17/09:00am 24.2 SSW 12 16 1007.8 - 0.0 - Mostly cloudy 10 - - - -
17/08:30am 24.0 SSW 12 16 1007.7 - 0.0 - Cloudy 10 - - - -
17/08:00am 23.2 S 11 14 1007.7 - 0.0 - Cloudy 10 - - - -
17/07:30am 22.6 SSW 12 16 1007.7 - 0.0 - Partly cloudy 10 - - - -
17/07:00am 21.5 SSW 8 10 1007.8 - 0.0 - Partly cloudy 10 - - - -
17/06:30am 20.3 SSW 7 8 1007.8 - 0.0 - Partly cloudy 10 - - - -
17/06:00am 20.1 SSW 6 7 1007.8 - 0.0 - Mostly clear 10 - - - -
17/05:30am 21.2 S 7 9 1007.5 - 0.0 - Cloudy 10 - - - -
17/05:00am 21.5 SSW 7 9 1007.8 - 0.0 - Cloudy 10 - - - -
17/04:30am 21.6 SSW 8 11 1007.7 - 0.0 - Cloudy 10 - - - -
17/04:00am 21.8 SSW 8 11 1007.8 - 0.0 - Partly cloudy 10 - - - -
17/03:30am 21.8 SSW 8 11 1007.8 - 0.0 - Cloudy 10 - - - -
17/03:00am 21.7 SSW 8 9 1007.7 - 0.0 - Cloudy 10 - - - -
17/02:30am 21.8 SSW 7 9 1007.7 - 0.0 - Partly cloudy 10 - - - -
17/02:27am 21.8 SSW 8 10 1007.6 - 0.0 - Partly cloudy 10 - - - -
17/02:16am 21.9 SSW 8 11 1007.4 - 0.0 - Partly cloudy 10 - - - -
17/02:00am 21.9 S 7 9 1007.3 - 0.0 - Partly cloudy 10 - - - -
17/01:54am 22.0 SSW 7 9 1007.3 - 0.0 - Partly cloudy 10 - - - -
17/01:30am 22.1 S 6 8 1007.5 - 0.0 - Partly cloudy 10 - - - -
17/01:00am 22.2 SSW 6 8 1007.8 - 0.0 - Cloudy 10 - - - -
17/12:30am 22.2 SSW 7 10 1008.0 - 0.0 - Cloudy 10 - - - -
17/12:00am 22.4 SW 7 10 1008.1 - 0.0 - Cloudy 10 - - - -
 
Date/Time
WST
Temp
°C
Wind Pressure Rain since
9am
mm
Weather Cloud Vis
km
Sea
Height
m
Swell
Dir  Spd
kts
Gust
kts
hPa Trend Height
m
Period
s
Dir
16/11:40pm 22.5 SW 9 11 1008.2 - 0.0 - Partly cloudy 10 - - - -
16/11:30pm 22.5 SSW 7 9 1007.9 - 0.0 - Partly cloudy 10 - - - -
16/11:00pm 22.5 SSW 8 9 1008.4 - 0.0 - - 10 - - - -
16/10:30pm 22.7 SSW 6 9 1008.9 - 0.0 - - 10 - - - -
16/10:17pm 22.7 SSW 7 8 1008.7 - 0.0 - Partly cloudy 10 - - - -
16/10:00pm 22.9 SW 7 9 1009.2 - 0.0 - Partly cloudy 10 - - - -
16/09:30pm 22.9 SSW 8 9 1009.0 - 0.0 - Partly cloudy 10 - - - -
16/09:00pm 22.9 SW 8 11 1008.6 - 0.0 - Mostly cloudy 10 - - - -
16/08:40pm 22.9 SW 7 10 1008.5 - 0.0 - Partly cloudy 10 - - - -
16/08:30pm 22.8 SW 8 10 1008.5 - 0.0 - Partly cloudy 10 - - - -
16/08:00pm 23.0 SW 8 11 1008.4 - 0.0 - - 10 - - - -
16/07:30pm 23.3 SW 6 8 1008.5 - 0.0 - - 10 - - - -
16/07:00pm 23.8 SSW 5 6 1008.3 - 0.0 - - 10 - - - -
16/06:30pm 24.1 S 4 6 1008.1 - 0.0 - - 10 - - - -
16/06:00pm 24.1 S 7 10 1007.9 - 0.0 - Mostly clear 10 - - - -
16/05:30pm 24.6 SW 12 18 1007.9 - 0.0 - Partly cloudy 10 - - - -
16/05:00pm 25.9 SSW 14 18 1007.2 - 0.0 - - 10 - - - -
16/04:30pm 27.5 SSW 14 17 1007.4 - 0.0 - - 10 - - - -
16/04:00pm 28.0 SSW 13 17 1007.5 - 0.0 - - 10 - - - -
16/03:30pm 28.4 SW 12 17 1007.6 - 0.0 - - 10 - - - -
16/03:00pm 27.4 SW 14 18 1007.9 - 0.0 - - 10 - - - -
16/02:30pm 28.1 SW 13 19 1008.5 - 0.0 - - 10 - - - -
16/02:00pm 28.4 SSW 10 14 1008.6 - 0.0 - - 10 - - - -
16/01:30pm 28.5 SW 11 15 1009.2 - 0.0 - - 10 - - - -
16/01:00pm 27.8 SW 11 15 1009.5 - 0.0 - - 10 - - - -
16/12:30pm 28.2 WSW 10 15 1009.8 - 0.0 - - 10 - - - -
16/12:00pm 27.8 SW 9 17 1010.0 - 0.0 - - 10 - - - -
16/11:30am 27.2 WSW 10 16 1009.8 - 0.0 - Partly cloudy 10 - - - -
16/11:00am 27.2 WSW 12 17 1010.1 - 0.0 - Partly cloudy 10 - - - -
16/10:30am 27.6 SW 10 15 1009.8 - 0.0 - - 10 - - - -
16/10:00am 27.5 SW 9 13 1009.7 - 0.0 - - 10 - - - -
16/09:30am 24.4 SSW 5 8 1009.8 - 0.0 - - 10 - - - -
16/09:15am 24.4 SW 8 11 1009.9 - 0.0 - Partly cloudy 10 - - - -
16/09:00am 24.1 SW 10 13 1010.2 - 0.0 - Cloudy 10 - - - -
16/08:30am 24.0 WSW 13 17 1010.7 - 0.0 - Cloudy 10 - - - -
16/08:00am 23.9 WSW 10 13 1010.2 - 0.0 - Cloudy 10 - - - -
16/07:30am 22.9 WSW 9 12 1009.9 - 0.0 - Cloudy 9 - - - -
16/07:00am 21.8 WNW 5 6 1009.4 - 0.0 - Cloudy 9 - - - -
16/06:32am 20.2 NW 5 6 1009.3 - 0.0 - Partly cloudy 9 - - - -
16/06:30am 20.0 NW 5 6 1009.2 - 0.0 - Partly cloudy 9 - - - -
16/06:09am 19.3 NNW 5 6 1009.1 - 0.0 - - 9 - - - -
16/06:00am 19.0 NNW 5 5 1009.0 - 0.0 - - 7 - - - -
16/05:55am 19.4 NNW 3 5 1009.0 - 0.0 - - 6 - - - -
16/05:30am 20.1 NW 3 4 1008.4 - 0.0 - - 8 - - - -
16/05:00am 19.7 NNW 4 5 1008.3 - 0.0 - - 9 - - - -
16/04:30am 19.4 NW 4 5 1008.5 - 0.0 - Partly cloudy 9 - - - -
16/04:00am 19.4 NW 5 5 1008.4 - 0.0 - - 9 - - - -
16/03:30am 19.7 NW 4 5 1008.4 - 0.0 - - 10 - - - -
16/03:00am 20.4 WNW 6 7 1008.3 - 0.0 - - 10 - - - -
16/02:30am 19.7 NNW 4 6 1008.4 - 0.0 - - 10 - - - -

Other Formats:

Comma delimited format used in spreadsheet applications
http://www.bom.gov.au/fwo/IDW60701/IDW60701.94403.axf

JavaScript Object Notation format (JSON) in row-major order
http://www.bom.gov.au/fwo/IDW60701/IDW60701.94403.json